Time;durP1;ratioP1;P1;durP2;ratioP2;P2;SDS_P1;SDS_P2;PMS_P1;PMS_P2;Temp;Humidity;BMP_temperature;BMP_pressure;BME280_temperature;BME280_humidity;BME280_pressure;Samples;Min_cycle;Max_cycle;Signal;HPM_P1;HPM_P2
2022/05/05 00:00:06;;;;;;;3.28;2.10;;;11.70;99.90;;;;;;172484;28;1401;-71
2022/05/05 00:00:12;;;;;;;3.40;2.10;;;11.70;99.90;;;;;;171931;28;1151;-69
2022/05/05 00:00:18;;;;;;;3.37;2.10;;;11.70;99.90;;;;;;171887;28;1305;-70
2022/05/05 00:00:24;;;;;;;3.85;2.10;;;11.70;99.90;;;;;;171703;28;2025;-68
2022/05/05 00:00:30;;;;;;;4.07;2.15;;;11.70;99.90;;;;;;171782;28;1072;-69
2022/05/05 00:00:35;;;;;;;3.97;2.10;;;11.80;99.90;;;;;;171731;28;1710;-67
2022/05/05 00:00:41;;;;;;;3.55;2.10;;;11.70;99.90;;;;;;171718;28;1341;-71
2022/05/05 00:00:47;;;;;;;3.47;2.10;;;11.70;99.90;;;;;;172203;28;1254;-66
2022/05/05 00:00:52;;;;;;;3.15;2.00;;;11.80;99.90;;;;;;172171;28;1322;-70
2022/05/05 00:00:58;;;;;;;2.75;1.90;;;11.70;99.90;;;;;;171794;28;1506;-69
2022/05/05 00:01:05;;;;;;;6.60;1.98;;;11.70;99.90;;;;;;171333;28;1533;-68
2022/05/05 00:01:11;;;;;;;7.92;1.90;;;11.70;99.90;;;;;;171547;28;1515;-70
2022/05/05 00:01:17;;;;;;;7.93;1.95;;;11.70;99.90;;;;;;171820;28;923;-70
2022/05/05 00:01:22;;;;;;;7.80;1.93;;;11.70;99.90;;;;;;172552;28;1407;-67
2022/05/05 00:01:28;;;;;;;7.72;1.90;;;11.70;99.90;;;;;;172524;28;852;-70
2022/05/05 00:01:34;;;;;;;4.05;1.95;;;11.80;99.90;;;;;;173470;28;1477;-69
2022/05/05 00:01:41;;;;;;;2.70;2.00;;;11.80;99.90;;;;;;173823;28;1693;-69
2022/05/05 00:01:46;;;;;;;3.05;2.00;;;11.70;99.90;;;;;;173555;28;1176;-70
2022/05/05 00:01:52;;;;;;;3.50;2.00;;;11.70;99.90;;;;;;173860;28;843;-70
2022/05/05 00:01:58;;;;;;;3.55;2.03;;;11.70;99.90;;;;;;173164;28;1148;-70
2022/05/05 00:02:04;;;;;;;3.43;2.00;;;11.70;99.90;;;;;;172262;28;1207;-67
2022/05/05 00:02:10;;;;;;;3.36;2.00;;;11.70;99.90;;;;;;173162;28;875;-70
2022/05/05 00:02:15;;;;;;;2.97;1.97;;;11.70;99.90;;;;;;172547;28;1347;-69
2022/05/05 00:02:21;;;;;;;2.28;1.83;;;11.70;99.90;;;;;;173758;28;1192;-70
2022/05/05 00:02:26;;;;;;;2.63;2.00;;;11.70;99.90;;;;;;174016;28;1174;-69
2022/05/05 00:02:34;;;;;;;2.88;2.00;;;11.70;99.90;;;;;;173326;28;977;-69
2022/05/05 00:02:39;;;;;;;3.13;1.90;;;11.70;99.90;;;;;;173448;28;1044;-69
2022/05/05 00:02:45;;;;;;;5.93;1.88;;;11.70;99.90;;;;;;172112;28;1563;-69
2022/05/05 00:02:51;;;;;;;6.55;2.05;;;11.60;99.90;;;;;;171628;28;1758;-69
2022/05/05 00:02:56;;;;;;;6.40;2.07;;;11.70;99.90;;;;;;170989;28;1120;-69
2022/05/05 00:03:02;;;;;;;6.50;2.15;;;11.70;99.90;;;;;;172329;28;1480;-68
2022/05/05 00:03:07;;;;;;;6.60;2.30;;;11.60;99.90;;;;;;173171;28;1578;-69
2022/05/05 00:03:13;;;;;;;5.18;2.30;;;11.70;99.90;;;;;;173823;28;812;-69
2022/05/05 00:03:19;;;;;;;3.60;2.30;;;11.60;99.90;;;;;;174270;28;981;-70
2022/05/05 00:03:24;;;;;;;3.88;2.30;;;11.60;99.90;;;;;;173063;28;1315;-70
2022/05/05 00:03:30;;;;;;;3.75;2.15;;;11.60;99.90;;;;;;171850;28;1348;-69
2022/05/05 00:03:36;;;;;;;3.67;2.10;;;11.60;99.90;;;;;;172531;28;1281;-69
2022/05/05 00:03:42;;;;;;;3.60;2.10;;;11.60;99.90;;;;;;172515;28;899;-70
2022/05/05 00:03:47;;;;;;;3.53;2.03;;;11.60;99.90;;;;;;172562;28;1242;-68
2022/05/05 00:03:53;;;;;;;3.10;1.92;;;11.60;99.90;;;;;;171022;28;1412;-69
2022/05/05 00:03:59;;;;;;;2.63;1.90;;;11.60;99.90;;;;;;171346;28;988;-70
2022/05/05 00:04:05;;;;;;;2.42;1.78;;;11.60;99.90;;;;;;172392;28;1092;-68
2022/05/05 00:04:11;;;;;;;2.40;1.80;;;11.60;99.90;;;;;;173038;28;1239;-68
2022/05/05 00:04:18;;;;;;;2.38;1.80;;;11.60;99.90;;;;;;173084;28;1310;-70
2022/05/05 00:04:24;;;;;;;2.50;1.90;;;11.60;99.90;;;;;;172707;28;1651;-66
2022/05/05 00:04:29;;;;;;;2.47;1.85;;;11.70;99.90;;;;;;173814;28;1381;-70
2022/05/05 00:04:35;;;;;;;2.60;1.93;;;11.70;99.90;;;;;;173788;28;903;-69
2022/05/05 00:04:40;;;;;;;2.78;1.90;;;11.60;99.90;;;;;;172714;28;1167;-69
2022/05/05 00:04:46;;;;;;;3.23;1.90;;;11.60;99.90;;;;;;172713;28;1108;-69
2022/05/05 00:04:52;;;;;;;3.23;1.90;;;11.70;99.90;;;;;;172118;28;1443;-68
2022/05/05 00:04:57;;;;;;;3.65;1.92;;;11.70;99.90;;;;;;173095;28;1163;-71
2022/05/05 00:05:04;;;;;;;3.77;2.10;;;11.60;99.90;;;;;;173033;28;1042;-67
2022/05/05 00:05:10;;;;;;;3.98;2.14;;;11.70;99.90;;;;;;172000;28;2028;-66
2022/05/05 00:05:15;;;;;;;3.40;2.10;;;11.60;99.90;;;;;;171533;28;1672;-69
2022/05/05 00:05:21;;;;;;;3.38;2.10;;;11.60;99.90;;;;;;172420;28;1243;-70
2022/05/05 00:05:26;;;;;;;3.93;2.20;;;11.60;99.90;;;;;;171807;28;943;-67
2022/05/05 00:05:32;;;;;;;3.88;2.00;;;11.60;99.90;;;;;;172163;28;1232;-69
2022/05/05 00:05:38;;;;;;;4.10;2.00;;;11.60;99.90;;;;;;172374;28;1180;-68
2022/05/05 00:05:43;;;;;;;4.18;2.10;;;11.70;99.90;;;;;;172368;28;1339;-68
2022/05/05 00:05:49;;;;;;;4.50;2.23;;;11.70;99.90;;;;;;172923;28;2147;-68
2022/05/05 00:05:54;;;;;;;4.35;2.30;;;11.60;99.90;;;;;;173200;28;852;-70
2022/05/05 00:06:00;;;;;;;3.47;2.33;;;11.70;99.90;;;;;;171867;28;1709;-70
2022/05/05 00:06:06;;;;;;;3.07;2.20;;;11.60;99.90;;;;;;172878;28;1471;-69
2022/05/05 00:06:11;;;;;;;2.92;2.20;;;11.70;99.90;;;;;;172609;28;1233;-69
2022/05/05 00:06:17;;;;;;;2.85;2.17;;;11.70;99.90;;;;;;173690;28;1233;-71
2022/05/05 00:06:22;;;;;;;2.67;2.07;;;11.70;99.90;;;;;;173111;28;983;-66
2022/05/05 00:06:28;;;;;;;2.55;1.95;;;11.70;99.90;;;;;;172854;28;1789;-69
2022/05/05 00:06:34;;;;;;;2.50;1.93;;;11.70;99.90;;;;;;173203;28;879;-69
2022/05/05 00:06:39;;;;;;;2.65;1.98;;;11.70;99.90;;;;;;173194;28;1342;-68
2022/05/05 00:06:45;;;;;;;2.55;1.92;;;11.70;99.90;;;;;;173664;28;1024;-69
2022/05/05 00:06:51;;;;;;;2.43;1.87;;;11.70;99.90;;;;;;173604;28;1050;-68
2022/05/05 00:06:57;;;;;;;2.30;1.80;;;11.70;99.90;;;;;;172338;28;1147;-70
2022/05/05 00:07:03;;;;;;;2.45;1.80;;;11.70;99.90;;;;;;172427;28;875;-70
2022/05/05 00:07:09;;;;;;;2.15;1.77;;;11.70;99.90;;;;;;172408;28;1272;-69
2022/05/05 00:07:14;;;;;;;2.08;1.67;;;11.70;99.90;;;;;;171698;28;796;-69
2022/05/05 00:07:20;;;;;;;2.10;1.70;;;11.60;99.90;;;;;;171604;28;2121;-68
2022/05/05 00:07:25;;;;;;;2.22;1.77;;;11.70;99.90;;;;;;171922;28;1585;-66
2022/05/05 00:07:32;;;;;;;2.13;1.70;;;11.60;99.90;;;;;;172160;28;1236;-70
2022/05/05 00:07:37;;;;;;;2.33;1.80;;;11.60;99.90;;;;;;172858;28;1775;-68
2022/05/05 00:07:43;;;;;;;3.17;1.90;;;11.70;99.90;;;;;;171075;28;1121;-67
2022/05/05 00:07:48;;;;;;;3.28;1.90;;;11.70;99.90;;;;;;172421;28;2023;-70
2022/05/05 00:07:54;;;;;;;3.08;1.80;;;11.70;99.90;;;;;;172584;28;1095;-69
2022/05/05 00:08:00;;;;;;;3.40;1.83;;;11.70;99.90;;;;;;171791;28;1311;-69
2022/05/05 00:08:07;;;;;;;3.22;1.80;;;11.70;99.90;;;;;;171837;28;911;-69
2022/05/05 00:08:12;;;;;;;2.56;1.74;;;11.70;99.90;;;;;;172313;28;1484;-67
2022/05/05 00:08:18;;;;;;;2.70;1.77;;;11.70;99.90;;;;;;171729;28;793;-69
2022/05/05 00:08:24;;;;;;;2.77;1.87;;;11.70;99.90;;;;;;172690;28;1513;-69
2022/05/05 00:08:30;;;;;;;2.40;1.77;;;11.70;99.90;;;;;;172495;28;1582;-69
2022/05/05 00:08:36;;;;;;;2.40;1.77;;;11.70;99.90;;;;;;173044;28;1432;-67
2022/05/05 00:08:41;;;;;;;2.40;1.77;;;11.70;99.90;;;;;;173236;28;1209;-70
2022/05/05 00:08:47;;;;;;;2.03;1.73;;;11.70;99.90;;;;;;172896;28;1189;-70
2022/05/05 00:08:53;;;;;;;2.05;1.70;;;11.60;99.90;;;;;;173161;28;1253;-67
2022/05/05 00:09:00;;;;;;;2.63;1.85;;;11.70;99.90;;;;;;173059;28;1436;-69
2022/05/05 00:09:06;;;;;;;3.00;1.93;;;11.60;99.90;;;;;;172524;28;1016;-69
2022/05/05 00:09:12;;;;;;;3.00;1.90;;;11.60;99.90;;;;;;172403;28;985;-70
2022/05/05 00:09:17;;;;;;;3.65;2.05;;;11.60;99.90;;;;;;172360;28;1621;-66
2022/05/05 00:09:23;;;;;;;4.27;2.00;;;11.50;99.90;;;;;;173006;28;1317;-69
2022/05/05 00:09:29;;;;;;;4.30;1.90;;;11.60;99.90;;;;;;173876;28;1044;-69
2022/05/05 00:09:36;;;;;;;3.87;1.80;;;11.50;99.90;;;;;;174236;28;1343;-69
2022/05/05 00:09:42;;;;;;;3.73;1.80;;;11.60;99.90;;;;;;174465;28;1298;-71
2022/05/05 00:09:47;;;;;;;3.20;1.77;;;11.50;99.90;;;;;;174715;28;1074;-67
2022/05/05 00:09:53;;;;;;;2.73;1.90;;;11.60;99.90;;;;;;173670;28;1491;-69
2022/05/05 00:14:23;;;;;;;2.10;1.90;;;11.50;99.90;;;;;;173196;28;1201;-68
2022/05/05 00:14:31;;;;;;;3.91;2.24;;;11.60;99.90;;;;;;174969;28;1274;-66
2022/05/05 00:14:39;;;;;;;3.59;2.20;;;11.60;99.90;;;;;;175187;28;1226;-68
2022/05/05 00:14:44;;;;;;;4.20;2.37;;;11.60;99.90;;;;;;174836;28;1743;-68
2022/05/05 00:14:50;;;;;;;4.00;2.22;;;11.60;99.90;;;;;;174268;28;1191;-69
2022/05/05 00:14:56;;;;;;;4.25;2.22;;;11.60;99.90;;;;;;174323;28;1303;-69
2022/05/05 00:15:02;;;;;;;4.55;2.30;;;11.60;99.90;;;;;;174423;28;867;-70
2022/05/05 00:15:08;;;;;;;3.42;2.17;;;11.50;99.90;;;;;;172371;28;1449;-67
2022/05/05 00:15:14;;;;;;;3.43;2.10;;;11.60;99.90;;;;;;172476;28;951;-69
2022/05/05 00:15:19;;;;;;;3.70;2.10;;;11.60;99.90;;;;;;172439;28;1102;-70
2022/05/05 00:15:25;;;;;;;3.60;2.17;;;11.60;99.90;;;;;;172359;28;1527;-67
2022/05/05 00:15:32;;;;;;;3.20;2.03;;;11.50;99.90;;;;;;172492;28;1964;-69
2022/05/05 00:15:38;;;;;;;3.07;2.00;;;11.50;99.90;;;;;;171822;28;951;-69
2022/05/05 00:15:43;;;;;;;3.00;1.90;;;11.50;99.90;;;;;;171620;28;1708;-70
2022/05/05 00:15:49;;;;;;;2.80;1.92;;;11.50;99.90;;;;;;172449;28;1301;-69
2022/05/05 00:15:54;;;;;;;2.60;1.90;;;11.60;99.90;;;;;;173148;28;816;-66
2022/05/05 00:16:00;;;;;;;2.83;2.00;;;11.60;99.90;;;;;;173147;28;1402;-67
2022/05/05 00:16:07;;;;;;;2.53;1.97;;;11.50;99.90;;;;;;172374;28;1138;-69
2022/05/05 00:16:12;;;;;;;2.40;2.00;;;11.60;99.90;;;;;;172466;28;1088;-68
2022/05/05 00:16:18;;;;;;;2.70;2.00;;;11.60;99.90;;;;;;172715;28;1656;-66
2022/05/05 00:16:23;;;;;;;2.97;2.07;;;11.60;99.90;;;;;;172343;28;1242;-68
2022/05/05 00:16:29;;;;;;;3.03;2.10;;;11.50;99.90;;;;;;173044;28;1351;-68
2022/05/05 00:16:35;;;;;;;2.83;2.10;;;11.60;99.90;;;;;;173121;28;1298;-69
2022/05/05 00:16:40;;;;;;;2.90;2.10;;;11.60;99.90;;;;;;172246;28;1997;-70
2022/05/05 00:16:46;;;;;;;3.13;2.20;;;11.50;99.90;;;;;;173150;28;1232;-67
2022/05/05 00:17:00;;;;;;;2.80;2.17;;;11.60;99.90;;;;;;172381;28;1212;-70
2022/05/05 00:17:07;;;;;;;2.42;1.92;;;11.60;99.90;;;;;;172340;28;1421;-70
2022/05/05 00:17:13;;;;;;;2.12;1.77;;;11.50;99.90;;;;;;173149;28;1326;-69
2022/05/05 00:17:19;;;;;;;2.00;1.80;;;11.50;99.90;;;;;;173284;28;1295;-70
2022/05/05 00:17:25;;;;;;;2.00;1.70;;;11.50;99.90;;;;;;172982;28;1144;-67
2022/05/05 00:17:34;;;;;;;2.10;1.87;;;11.50;99.90;;;;;;172407;28;1328;-70
2022/05/05 00:17:39;;;;;;;2.68;2.05;;;11.50;99.90;;;;;;172921;28;1092;-68
2022/05/05 00:17:45;;;;;;;3.13;2.20;;;11.50;99.90;;;;;;171723;28;1136;-68
2022/05/05 00:17:50;;;;;;;3.30;2.17;;;11.50;99.90;;;;;;173135;28;1093;-69
2022/05/05 00:17:56;;;;;;;3.43;2.20;;;11.50;99.90;;;;;;173034;28;1429;-66
2022/05/05 00:18:03;;;;;;;3.63;2.13;;;11.50;99.90;;;;;;174135;28;1660;-70
2022/05/05 00:18:08;;;;;;;3.83;2.17;;;11.60;99.90;;;;;;174345;28;1096;-68
2022/05/05 00:18:14;;;;;;;3.70;2.10;;;11.50;99.90;;;;;;173523;28;1254;-66
2022/05/05 00:18:20;;;;;;;3.37;1.97;;;11.60;99.90;;;;;;173643;28;2327;-69
2022/05/05 00:18:26;;;;;;;4.03;2.05;;;11.50;99.90;;;;;;173303;28;1244;-70
2022/05/05 00:18:31;;;;;;;4.53;2.20;;;11.60;99.90;;;;;;173156;28;1606;-70
2022/05/05 00:18:37;;;;;;;4.15;2.10;;;11.60;99.90;;;;;;173227;28;1386;-70
2022/05/05 00:18:43;;;;;;;4.43;2.10;;;11.50;99.90;;;;;;172433;28;976;-68
2022/05/05 00:18:48;;;;;;;4.25;2.10;;;11.50;99.90;;;;;;172480;28;1176;-68
2022/05/05 00:18:54;;;;;;;4.00;2.03;;;11.50;99.90;;;;;;173549;28;1368;-68
2022/05/05 00:19:01;;;;;;;3.58;1.92;;;11.50;99.90;;;;;;173831;28;958;-69
2022/05/05 00:19:06;;;;;;;3.93;1.93;;;11.50;99.90;;;;;;173310;28;1356;-67
2022/05/05 00:19:12;;;;;;;4.53;1.83;;;11.50;99.90;;;;;;173745;28;990;-66
2022/05/05 00:19:17;;;;;;;4.65;1.88;;;11.50;99.90;;;;;;173731;28;1377;-68
2022/05/05 00:19:24;;;;;;;4.78;2.00;;;11.50;99.90;;;;;;173160;28;1010;-71
2022/05/05 00:19:32;;;;;;;4.50;2.00;;;11.50;99.90;;;;;;173494;28;865;-69
2022/05/05 00:19:41;;;;;;;3.13;1.90;;;11.50;99.90;;;;;;173332;28;1186;-69
2022/05/05 00:19:47;;;;;;;2.83;1.91;;;11.50;99.90;;;;;;172786;28;1276;-71
2022/05/05 00:19:52;;;;;;;2.75;1.90;;;11.40;99.90;;;;;;173677;28;1243;-70
2022/05/05 00:19:58;;;;;;;2.57;1.87;;;11.40;99.90;;;;;;173249;28;1375;-70
2022/05/05 00:20:04;;;;;;;2.63;1.90;;;11.40;99.90;;;;;;173128;28;1059;-68
2022/05/05 00:20:10;;;;;;;2.87;1.97;;;11.40;99.90;;;;;;173233;28;1066;-67
2022/05/05 00:20:15;;;;;;;2.65;1.95;;;11.40;99.90;;;;;;172412;28;1320;-69
2022/05/05 00:20:21;;;;;;;2.63;1.90;;;11.40;99.90;;;;;;172408;28;1910;-69
2022/05/05 00:20:27;;;;;;;2.67;1.90;;;11.40;99.90;;;;;;172447;28;1002;-71
2022/05/05 00:20:32;;;;;;;2.80;2.00;;;11.40;99.90;;;;;;172497;28;923;-68
2022/05/05 00:20:38;;;;;;;2.83;2.10;;;11.40;99.90;;;;;;173115;28;1378;-70
2022/05/05 00:20:44;;;;;;;2.95;2.10;;;11.40;99.90;;;;;;173732;28;1442;-70
2022/05/05 00:20:50;;;;;;;2.83;2.10;;;11.40;99.90;;;;;;173626;28;1329;-68
2022/05/05 00:20:55;;;;;;;2.95;2.10;;;11.40;99.90;;;;;;174515;28;824;-69
2022/05/05 00:21:01;;;;;;;3.00;2.07;;;11.40;99.90;;;;;;174274;28;1024;-69
2022/05/05 00:21:06;;;;;;;2.83;1.92;;;11.40;99.90;;;;;;173048;28;1964;-67
2022/05/05 00:21:12;;;;;;;2.73;1.90;;;11.40;99.90;;;;;;172556;28;1268;-67
2022/05/05 00:21:18;;;;;;;2.53;1.80;;;11.40;99.90;;;;;;172607;28;1196;-69
2022/05/05 00:21:23;;;;;;;2.55;1.80;;;11.40;99.90;;;;;;173165;28;1010;-69
2022/05/05 00:21:29;;;;;;;2.53;1.90;;;11.30;99.90;;;;;;172087;28;1207;-66
2022/05/05 00:21:38;;;;;;;2.75;1.90;;;11.30;99.90;;;;;;173120;28;1488;-69
2022/05/05 00:21:43;;;;;;;2.85;1.98;;;11.30;99.90;;;;;;173850;28;1603;-69
2022/05/05 00:21:49;;;;;;;2.95;1.98;;;11.30;99.90;;;;;;173812;28;891;-68
2022/05/05 00:21:55;;;;;;;2.72;1.90;;;11.30;99.90;;;;;;174051;28;1457;-69
2022/05/05 00:22:01;;;;;;;2.47;1.75;;;11.30;99.90;;;;;;174277;28;1047;-69
2022/05/05 00:22:07;;;;;;;2.27;1.90;;;11.30;99.90;;;;;;173100;28;2005;-67
2022/05/05 00:22:13;;;;;;;2.43;1.93;;;11.30;99.90;;;;;;173802;28;1332;-70
2022/05/05 00:22:19;;;;;;;2.38;1.90;;;11.30;99.90;;;;;;173824;28;915;-68
2022/05/05 00:22:24;;;;;;;2.70;2.00;;;11.30;99.90;;;;;;173113;28;1280;-70
2022/05/05 00:22:30;;;;;;;2.75;1.90;;;11.30;99.90;;;;;;171803;28;1223;-66
2022/05/05 00:22:35;;;;;;;2.63;1.77;;;11.30;99.90;;;;;;173355;28;1044;-67
2022/05/05 00:22:41;;;;;;;2.43;1.77;;;11.20;99.90;;;;;;173667;28;1441;-70
2022/05/05 00:22:47;;;;;;;2.58;1.83;;;11.20;99.90;;;;;;174327;28;1167;-68
2022/05/05 00:22:52;;;;;;;2.53;1.87;;;11.30;99.90;;;;;;174184;28;1340;-69
2022/05/05 00:22:58;;;;;;;2.95;1.95;;;11.20;99.90;;;;;;173794;28;966;-69
2022/05/05 00:23:03;;;;;;;3.20;2.08;;;11.20;99.90;;;;;;172468;28;1340;-71
2022/05/05 00:23:09;;;;;;;3.40;2.10;;;11.20;99.90;;;;;;173085;28;1171;-68
2022/05/05 00:23:15;;;;;;;3.30;2.08;;;11.20;99.90;;;;;;172809;28;1260;-67
2022/05/05 00:23:20;;;;;;;3.63;2.10;;;11.20;99.90;;;;;;172930;28;1272;-70
2022/05/05 00:23:26;;;;;;;3.70;2.17;;;11.20;99.90;;;;;;173130;28;1033;-70
2022/05/05 00:23:32;;;;;;;3.35;2.10;;;11.20;99.90;;;;;;172502;28;1394;-71
2022/05/05 00:23:37;;;;;;;3.13;2.07;;;11.20;99.90;;;;;;172572;28;1169;-70
2022/05/05 00:23:43;;;;;;;3.45;2.10;;;11.20;99.90;;;;;;173010;28;1243;-69
2022/05/05 00:23:48;;;;;;;4.28;2.13;;;11.20;99.90;;;;;;172446;28;828;-70
2022/05/05 00:23:54;;;;;;;4.33;2.20;;;11.20;99.90;;;;;;172949;28;1183;-68
2022/05/05 00:24:00;;;;;;;5.25;2.15;;;11.20;99.90;;;;;;173681;28;1460;-68
2022/05/05 00:24:06;;;;;;;5.43;2.13;;;11.20;99.90;;;;;;173778;28;1258;-70
2022/05/05 00:24:12;;;;;;;5.32;2.14;;;11.20;99.90;;;;;;172735;28;1426;-69
2022/05/05 00:24:18;;;;;;;4.43;2.13;;;11.20;99.90;;;;;;173232;28;829;-69
2022/05/05 00:24:23;;;;;;;3.93;2.00;;;11.20;99.90;;;;;;173179;28;1197;-70
2022/05/05 00:24:29;;;;;;;3.45;2.03;;;11.20;99.90;;;;;;172815;28;1184;-68
2022/05/05 00:24:37;;;;;;;3.30;2.17;;;11.20;99.90;;;;;;172959;28;1017;-67
2022/05/05 00:24:42;;;;;;;3.48;2.18;;;11.20;99.90;;;;;;172059;28;1504;-68
2022/05/05 00:24:48;;;;;;;3.40;2.15;;;11.20;99.90;;;;;;172401;28;1410;-67
2022/05/05 00:24:53;;;;;;;3.33;2.27;;;11.20;99.90;;;;;;172823;28;999;-70
2022/05/05 00:24:59;;;;;;;2.80;2.10;;;11.20;99.90;;;;;;173153;28;934;-70
2022/05/05 00:25:05;;;;;;;3.00;2.10;;;11.20;99.90;;;;;;173445;28;1244;-67
2022/05/05 00:25:10;;;;;;;2.87;2.00;;;11.30;99.90;;;;;;173822;28;847;-68
2022/05/05 00:25:16;;;;;;;2.85;2.08;;;11.30;99.90;;;;;;172909;28;1083;-70
2022/05/05 00:25:21;;;;;;;2.87;2.10;;;11.30;99.90;;;;;;171722;28;1333;-70
2022/05/05 00:25:27;;;;;;;2.92;2.17;;;11.30;99.90;;;;;;172028;28;1350;-69
2022/05/05 00:25:33;;;;;;;3.20;2.28;;;11.30;99.90;;;;;;172880;28;1438;-69
2022/05/05 00:25:38;;;;;;;2.97;2.30;;;11.30;99.90;;;;;;173092;28;1130;-68
2022/05/05 00:25:44;;;;;;;3.03;2.22;;;11.30;99.90;;;;;;172958;28;1178;-69
2022/05/05 00:25:49;;;;;;;3.50;2.03;;;11.30;99.90;;;;;;172438;28;883;-68
2022/05/05 00:25:55;;;;;;;3.63;2.03;;;11.30;99.90;;;;;;172316;28;1066;-69
2022/05/05 00:26:01;;;;;;;3.05;1.75;;;11.30;99.90;;;;;;172416;28;1142;-70
2022/05/05 00:26:06;;;;;;;3.20;1.70;;;11.30;99.90;;;;;;172198;28;1357;-68
2022/05/05 00:26:12;;;;;;;3.03;1.75;;;11.30;99.90;;;;;;172076;28;1411;-71
2022/05/05 00:26:17;;;;;;;3.43;2.00;;;11.30;99.90;;;;;;171654;28;1605;-69
2022/05/05 00:26:23;;;;;;;2.88;1.90;;;11.30;99.90;;;;;;171812;28;1570;-70
2022/05/05 00:26:29;;;;;;;3.10;2.03;;;11.30;99.90;;;;;;173130;28;1030;-69
2022/05/05 00:26:34;;;;;;;3.33;2.10;;;11.30;99.90;;;;;;172944;28;1332;-68
2022/05/05 00:26:40;;;;;;;3.35;2.20;;;11.30;99.90;;;;;;172982;28;1412;-69
2022/05/05 00:26:46;;;;;;;2.85;2.08;;;11.30;99.90;;;;;;173771;28;978;-66
2022/05/05 00:26:52;;;;;;;2.83;2.10;;;11.20;99.90;;;;;;172697;28;1042;-70
2022/05/05 00:26:58;;;;;;;3.05;2.03;;;11.30;99.90;;;;;;172457;28;1533;-69
2022/05/05 00:27:04;;;;;;;3.43;2.07;;;11.30;99.90;;;;;;171968;28;1797;-69
2022/05/05 00:27:10;;;;;;;3.00;1.90;;;11.20;99.90;;;;;;171708;28;1061;-69
2022/05/05 00:27:16;;;;;;;2.83;1.73;;;11.20;99.90;;;;;;171898;28;1472;-70
2022/05/05 00:27:22;;;;;;;3.38;1.90;;;11.30;99.90;;;;;;171081;28;1221;-70
2022/05/05 00:27:29;;;;;;;3.57;2.03;;;11.20;99.90;;;;;;171685;28;2201;-67
2022/05/05 00:27:34;;;;;;;2.83;1.80;;;11.20;99.90;;;;;;171145;28;979;-68
2022/05/05 00:27:40;;;;;;;2.97;1.88;;;11.20;99.90;;;;;;171831;28;3200;-68
2022/05/05 00:27:46;;;;;;;3.10;1.90;;;11.20;99.90;;;;;;172167;28;1068;-70
2022/05/05 00:27:51;;;;;;;2.90;1.80;;;11.20;99.90;;;;;;173128;28;1068;-67
2022/05/05 00:27:57;;;;;;;2.55;1.63;;;11.20;99.90;;;;;;171860;28;1858;-69
2022/05/05 00:28:02;;;;;;;2.63;1.70;;;11.20;99.90;;;;;;172191;28;1632;-67
2022/05/05 00:28:08;;;;;;;2.65;1.67;;;11.20;99.90;;;;;;172431;28;1417;-69
2022/05/05 00:28:14;;;;;;;2.77;1.70;;;11.20;99.90;;;;;;173084;28;1878;-70
2022/05/05 00:28:19;;;;;;;3.63;1.70;;;11.20;99.90;;;;;;172689;28;1269;-68
2022/05/05 00:28:25;;;;;;;3.40;1.70;;;11.20;99.90;;;;;;172247;28;1220;-70
2022/05/05 00:28:30;;;;;;;3.70;1.83;;;11.20;99.90;;;;;;171784;28;963;-70
2022/05/05 00:28:36;;;;;;;4.32;1.90;;;11.30;99.90;;;;;;171719;28;1529;-70
2022/05/05 00:28:42;;;;;;;4.33;1.90;;;11.20;99.90;;;;;;171850;28;865;-72
2022/05/05 00:28:47;;;;;;;3.42;1.85;;;11.30;99.90;;;;;;172466;28;974;-69
2022/05/05 00:28:53;;;;;;;3.15;1.85;;;11.30;99.90;;;;;;172754;28;1024;-69
2022/05/05 00:28:58;;;;;;;3.43;2.00;;;11.20;99.90;;;;;;173162;28;978;-70
2022/05/05 00:29:05;;;;;;;2.83;1.92;;;11.30;99.90;;;;;;172481;28;1136;-68
2022/05/05 00:29:10;;;;;;;2.87;1.97;;;11.30;99.90;;;;;;173656;28;1237;-69
2022/05/05 00:29:16;;;;;;;2.88;2.00;;;11.30;99.90;;;;;;172475;28;1144;-70
2022/05/05 00:29:22;;;;;;;2.80;2.00;;;11.30;99.90;;;;;;172471;28;994;-70
2022/05/05 00:29:28;;;;;;;2.42;1.85;;;11.30;99.90;;;;;;173450;28;1163;-69
2022/05/05 00:29:34;;;;;;;2.00;1.80;;;11.30;99.90;;;;;;173175;28;1042;-70
2022/05/05 00:29:39;;;;;;;2.00;1.80;;;11.30;99.90;;;;;;173175;28;977;-69
2022/05/05 00:29:45;;;;;;;2.10;1.80;;;11.30;99.90;;;;;;172661;28;1203;-68
2022/05/05 00:29:51;;;;;;;2.10;1.83;;;11.30;99.90;;;;;;172114;28;2013;-68
2022/05/05 00:29:56;;;;;;;2.40;1.80;;;11.30;99.90;;;;;;171486;28;2010;-70
2022/05/05 00:30:02;;;;;;;2.50;1.88;;;11.30;99.90;;;;;;171820;28;994;-70
2022/05/05 00:30:09;;;;;;;2.70;2.00;;;11.30;99.90;;;;;;171673;28;1601;-67
2022/05/05 00:30:14;;;;;;;2.40;1.80;;;11.20;99.90;;;;;;171691;28;1094;-71
2022/05/05 00:30:20;;;;;;;2.40;1.80;;;11.20;99.90;;;;;;172433;28;1318;-69
2022/05/05 00:30:25;;;;;;;2.63;1.80;;;11.20;99.90;;;;;;172996;28;1202;-68
2022/05/05 00:30:31;;;;;;;2.45;1.80;;;11.20;99.90;;;;;;172441;28;1204;-70
2022/05/05 00:30:37;;;;;;;2.33;1.80;;;11.20;99.90;;;;;;172671;28;1318;-70
2022/05/05 00:30:42;;;;;;;2.33;1.80;;;11.20;99.90;;;;;;172519;28;907;-70
2022/05/05 00:30:48;;;;;;;2.97;2.00;;;11.20;99.90;;;;;;172171;28;1010;-69
2022/05/05 00:30:53;;;;;;;2.95;2.03;;;11.20;99.90;;;;;;171960;28;1122;-67
2022/05/05 00:30:59;;;;;;;2.97;2.00;;;11.20;99.90;;;;;;171812;28;1314;-66
2022/05/05 00:31:05;;;;;;;3.25;1.98;;;11.20;99.90;;;;;;171395;28;1359;-67
2022/05/05 00:31:10;;;;;;;3.33;2.00;;;11.30;99.90;;;;;;170930;28;1338;-67
2022/05/05 00:31:16;;;;;;;3.03;1.87;;;11.20;99.90;;;;;;171548;28;1346;-64
2022/05/05 00:31:21;;;;;;;2.60;1.83;;;11.20;99.90;;;;;;172212;28;1228;-69
2022/05/05 00:31:27;;;;;;;2.83;1.90;;;11.30;99.90;;;;;;172159;28;976;-70
2022/05/05 00:31:33;;;;;;;2.72;1.90;;;11.30;99.90;;;;;;172973;28;999;-69
2022/05/05 00:31:39;;;;;;;2.60;1.90;;;11.30;99.90;;;;;;173039;28;1317;-67
2022/05/05 00:31:45;;;;;;;3.00;2.08;;;11.30;99.90;;;;;;172665;28;1457;-68
2022/05/05 00:31:50;;;;;;;3.00;2.00;;;11.30;99.90;;;;;;173217;28;981;-69
2022/05/05 00:31:56;;;;;;;2.92;2.00;;;11.30;99.90;;;;;;171929;28;1248;-67
2022/05/05 00:32:02;;;;;;;3.00;2.10;;;11.30;99.90;;;;;;172529;28;971;-70
2022/05/05 00:32:08;;;;;;;3.10;2.10;;;11.30;99.90;;;;;;172274;28;2445;-67
2022/05/05 00:32:14;;;;;;;3.15;2.10;;;11.30;99.90;;;;;;171488;28;998;-69
2022/05/05 00:32:19;;;;;;;3.22;2.08;;;11.20;99.90;;;;;;171863;28;945;-67
2022/05/05 00:32:25;;;;;;;3.30;2.00;;;11.20;99.90;;;;;;172204;28;1351;-67
2022/05/05 00:32:30;;;;;;;3.22;2.08;;;11.20;99.90;;;;;;172486;28;958;-69
2022/05/05 00:32:36;;;;;;;3.10;2.10;;;11.20;99.90;;;;;;171986;28;1195;-70
2022/05/05 00:32:41;;;;;;;2.97;2.03;;;11.20;99.90;;;;;;172284;28;1180;-70
2022/05/05 00:32:47;;;;;;;2.67;2.00;;;11.20;99.90;;;;;;171771;28;1176;-69
2022/05/05 00:32:53;;;;;;;2.45;1.92;;;11.20;99.90;;;;;;172363;28;1187;-69
2022/05/05 00:32:58;;;;;;;2.30;1.88;;;11.10;99.90;;;;;;172525;28;1088;-67
2022/05/05 00:33:04;;;;;;;2.53;1.90;;;11.10;99.90;;;;;;172266;28;990;-66
2022/05/05 00:33:09;;;;;;;2.90;1.90;;;11.10;99.90;;;;;;173048;28;1180;-70
2022/05/05 00:33:15;;;;;;;3.13;2.00;;;11.10;99.90;;;;;;173529;28;1076;-68
2022/05/05 00:33:21;;;;;;;3.20;2.05;;;11.10;99.90;;;;;;172422;28;1283;-70
2022/05/05 00:33:26;;;;;;;3.33;2.10;;;11.10;99.90;;;;;;172311;28;1320;-69
2022/05/05 00:33:32;;;;;;;3.20;2.00;;;11.00;99.90;;;;;;171652;28;1457;-70
2022/05/05 00:33:38;;;;;;;2.67;2.00;;;11.00;99.90;;;;;;171880;28;1755;-67
2022/05/05 00:33:43;;;;;;;2.58;1.90;;;11.10;99.90;;;;;;172514;28;1582;-70
2022/05/05 00:33:49;;;;;;;2.40;1.83;;;11.00;99.90;;;;;;172442;28;997;-69
2022/05/05 00:33:54;;;;;;;3.10;1.90;;;11.00;99.90;;;;;;172595;28;1070;-70
2022/05/05 00:34:00;;;;;;;3.27;1.90;;;11.00;99.90;;;;;;171856;28;938;-69
2022/05/05 00:34:06;;;;;;;4.50;1.85;;;11.10;99.90;;;;;;171982;28;1018;-69
2022/05/05 00:34:12;;;;;;;4.78;1.98;;;11.10;99.90;;;;;;172953;28;1287;-70
2022/05/05 00:34:18;;;;;;;4.75;2.00;;;11.10;99.90;;;;;;173166;28;933;-70
2022/05/05 00:34:23;;;;;;;4.30;2.00;;;11.10;99.90;;;;;;173347;28;1262;-68
2022/05/05 00:34:29;;;;;;;4.07;2.17;;;11.10;99.90;;;;;;174464;28;1306;-69
2022/05/05 00:34:34;;;;;;;3.38;2.22;;;11.10;99.90;;;;;;172805;28;1689;-68
2022/05/05 00:34:40;;;;;;;2.70;2.13;;;11.10;99.90;;;;;;173884;28;913;-69
2022/05/05 00:34:46;;;;;;;3.17;2.10;;;11.10;99.90;;;;;;173706;28;1351;-71
2022/05/05 00:34:51;;;;;;;4.78;2.00;;;11.10;99.90;;;;;;171352;28;1748;-66
2022/05/05 00:34:57;;;;;;;4.93;1.87;;;11.00;99.90;;;;;;172949;28;2024;-70
2022/05/05 00:35:03;;;;;;;4.38;1.70;;;11.10;99.90;;;;;;173151;28;1001;-67
2022/05/05 00:35:08;;;;;;;4.18;1.65;;;11.10;99.90;;;;;;172288;28;1622;-69
2022/05/05 00:35:14;;;;;;;4.10;1.60;;;11.10;99.90;;;;;;171789;28;1362;-69
2022/05/05 00:35:20;;;;;;;2.97;1.63;;;11.10;99.90;;;;;;171815;28;851;-68
2022/05/05 00:35:25;;;;;;;2.60;1.63;;;11.10;99.90;;;;;;171856;28;1055;-69
2022/05/05 00:35:31;;;;;;;2.78;1.70;;;11.10;99.90;;;;;;173744;28;1334;-70
2022/05/05 00:35:36;;;;;;;2.78;1.67;;;11.10;99.90;;;;;;174388;28;1633;-71
2022/05/05 00:35:42;;;;;;;3.07;1.73;;;11.10;99.90;;;;;;174570;28;1211;-71